Weather, Runways
& NOTAMs

CYYZ - Toronto-Lester B. Pearson International
CYYZ 190200Z 23009KT 15SM FEW040 FEW230 22/19 A2967 RMK SC1CI1 SLP046 DENSITY ALT 1900FT
Suggested Runways: Departures: 23, Arrivals: 24R
CYOW - Ottawa Macdonald-Cartier International
CYOW 190200Z 27006KT 8SM -SHRA FEW006 SCT030 OVC053 17/17 A2970 RMK SF1SC2SC5 CVCTV CLD EMBD SLP058 DENSITY ALT 1000FT
Suggested Runway: 25
CYTZ - Billy Bishop Toronto City
CYTZ 190200Z AUTO 22007KT 9SM CLR 18/16 A2966 RMK SLP045 DENSITY ALT 1000FT
Suggested Runway: 26
CYXU - London International
CYXU 190200Z 23005KT 15SM FEW029 22/20 A2971 RMK SC1 SLP060 DENSITY ALT 2200FT
Suggested Runway: 15
CYHM - John C. Munro Hamilton International
CYHM 190200Z 19006KT 15SM FEW034 20/18 A2970 RMK SC1 SLP058 DENSITY ALT 1900FT
Suggested Runway: 12
CYKF - Region of Waterloo International
CYKF 190200Z AUTO 19007KT 9SM FEW037 21/19 A2970 RMK SLP055 DENSITY ALT 2300FT
Suggested Runway: 26
CYAM - Sault Ste. Marie
CYAM 190200Z 31006KT 20SM BKN093 BKN260 13/10 A2970 RMK ACC5CI1 SLP061 DENSITY ALT 900FT
Suggested Runway: 30
CYTR - Canadian Forces Base Trenton
CYTR 190145Z 15004KT 15SM FEW040 SCT130 19/16 A2967 RMK SC2AC2 LAST STFD OBS/NEXT 190145 UTC SLP048
Suggested Runway: 06
CYOO - Toronto/Oshawa Executive
CYOO 190200Z AUTO VRB02KT 9SM FEW066 19/17 A2966 RMK SLP045 DENSITY ALT 1400FT
Suggested Runway: 30

NOTAMs